createdAt,value
2017-11-16T00:00:30.809Z,23.50
2017-11-16T00:02:59.187Z,24.83
2017-11-16T00:05:27.528Z,28.20
2017-11-16T00:07:55.894Z,24.17
2017-11-16T00:10:24.263Z,23.83
2017-11-16T00:12:52.308Z,24.47
2017-11-16T00:15:21.411Z,22.53
2017-11-16T00:17:50.539Z,25.53
2017-11-16T00:20:18.879Z,21.00
2017-11-16T00:22:48.011Z,22.23
2017-11-16T00:25:16.348Z,21.87
2017-11-16T00:27:45.448Z,21.83
2017-11-16T00:30:14.564Z,21.00
2017-11-16T00:32:42.890Z,20.83
2017-11-16T00:35:11.252Z,23.87
2017-11-16T00:37:39.792Z,23.63
2017-11-16T00:40:08.674Z,21.37
2017-11-16T00:42:37.117Z,23.00
2017-11-16T00:45:05.443Z,28.27
2017-11-16T00:47:33.983Z,25.43
2017-11-16T00:50:03.132Z,25.43
2017-11-16T00:52:31.467Z,22.83
2017-11-16T00:55:00.561Z,22.30
2017-11-16T00:57:29.714Z,21.83
2017-11-16T00:59:58.051Z,23.10
2017-11-16T01:02:26.449Z,24.17
2017-11-16T01:04:54.805Z,22.10
2017-11-16T01:07:23.136Z,26.77
2017-11-16T01:09:51.473Z,24.53
2017-11-16T01:12:19.852Z,21.80
2017-11-16T01:14:48.182Z,22.00
2017-11-16T01:17:16.596Z,23.83
2017-11-16T01:19:44.982Z,21.93
2017-11-16T01:22:14.262Z,26.33
2017-11-16T01:24:42.786Z,25.43
2017-11-16T01:27:11.177Z,24.60
2017-11-16T01:29:40.399Z,25.60
2017-11-16T01:32:09.863Z,24.10
2017-11-16T01:34:39.190Z,24.83
2017-11-16T01:37:08.298Z,24.33
2017-11-16T01:39:37.681Z,26.10
2017-11-16T01:42:06.046Z,24.67
2017-11-16T01:44:34.388Z,25.87
2017-11-16T01:47:02.729Z,24.83
2017-11-16T01:49:32.050Z,27.93
2017-11-16T01:52:01.627Z,26.07
2017-11-16T01:54:30.031Z,28.87
2017-11-16T01:56:58.549Z,25.83
2017-11-16T01:59:27.834Z,24.17
2017-11-16T02:01:56.285Z,26.87
2017-11-16T02:04:24.627Z,25.73
2017-11-16T02:06:52.960Z,26.27
2017-11-16T02:09:21.774Z,27.67
2017-11-16T02:11:50.103Z,24.40
2017-11-16T02:14:18.136Z,25.43
2017-11-16T02:16:46.485Z,23.07
2017-11-16T02:19:14.478Z,23.93
2017-11-16T02:21:42.183Z,26.90
2017-11-16T02:24:09.873Z,26.90
2017-11-16T02:26:38.314Z,25.83
2017-11-16T02:29:06.537Z,26.53
2017-11-16T02:31:34.917Z,26.37
2017-11-16T02:34:03.248Z,27.93
2017-11-16T02:36:31.790Z,28.13
2017-11-16T02:38:59.669Z,27.20
2017-11-16T02:41:27.707Z,24.80
2017-11-16T02:43:55.717Z,30.47
2017-11-16T02:46:24.248Z,28.97
2017-11-16T02:48:51.996Z,27.60
2017-11-16T02:54:11.449Z,26.23
2017-11-16T02:56:39.695Z,27.77
2017-11-16T02:59:07.792Z,24.47
2017-11-16T03:01:37.035Z,25.53
2017-11-16T03:04:05.364Z,24.50
2017-11-16T03:06:33.695Z,25.87
2017-11-16T03:09:02.044Z,26.10
2017-11-16T03:11:30.446Z,28.50
2017-11-16T03:13:58.867Z,22.47
2017-11-16T03:16:27.203Z,29.30
2017-11-16T03:18:55.540Z,28.07
2017-11-16T03:21:25.623Z,26.87
2017-11-16T03:23:53.636Z,23.80
2017-11-16T03:26:21.835Z,25.13
2017-11-16T03:28:49.513Z,30.73
2017-11-16T03:31:17.844Z,24.00
2017-11-16T03:33:45.891Z,24.03
2017-11-16T03:36:14.235Z,23.73
2017-11-16T03:38:42.605Z,26.97
2017-11-16T03:41:11.902Z,26.17
2017-11-16T03:43:40.356Z,24.00
2017-11-16T03:46:09.731Z,25.30
2017-11-16T03:48:39.124Z,27.27
2017-11-16T03:51:06.804Z,26.03
2017-11-16T03:53:34.568Z,27.27
2017-11-16T03:56:02.918Z,25.10
2017-11-16T03:58:31.273Z,26.63
2017-11-16T04:00:59.608Z,25.80
2017-11-16T04:03:28.802Z,22.17
2017-11-16T04:05:57.135Z,22.77
2017-11-16T04:08:25.487Z,29.63
2017-11-16T04:10:53.178Z,23.30
2017-11-16T04:13:21.516Z,24.13
2017-11-16T04:15:49.859Z,23.87
2017-11-16T04:18:19.050Z,22.87
2017-11-16T04:20:46.727Z,22.20
2017-11-16T04:23:15.158Z,25.60
2017-11-16T04:25:43.182Z,21.00
2017-11-16T04:28:12.274Z,22.20
2017-11-16T04:30:40.467Z,22.63
2017-11-16T04:33:08.846Z,20.27
2017-11-16T04:35:37.180Z,19.93
2017-11-16T04:38:05.512Z,19.30
2017-11-16T04:40:33.859Z,17.43
2017-11-16T04:43:02.986Z,19.33
2017-11-16T04:45:31.320Z,18.90
2017-11-16T04:48:00.415Z,23.87
2017-11-16T04:50:29.532Z,19.87
2017-11-16T04:52:57.911Z,19.77
2017-11-16T04:55:26.259Z,23.07
2017-11-16T04:57:54.604Z,19.30
2017-11-16T05:00:22.608Z,19.10
2017-11-16T05:02:51.754Z,20.33
2017-11-16T05:05:19.775Z,20.93
2017-11-16T05:07:48.215Z,23.17
2017-11-16T05:10:15.926Z,20.40
2017-11-16T05:12:45.045Z,34.97
2017-11-16T05:15:13.382Z,21.70
2017-11-16T05:17:42.479Z,24.00
2017-11-16T05:20:10.472Z,25.50
2017-11-16T05:22:39.834Z,23.97
2017-11-16T05:25:08.528Z,22.27
2017-11-16T05:27:36.907Z,22.97
2017-11-16T05:30:05.343Z,24.47
2017-11-16T05:32:33.693Z,20.97
2017-11-16T05:35:02.024Z,20.73
2017-11-16T05:37:30.373Z,24.23
2017-11-16T05:39:58.369Z,23.47
2017-11-16T05:42:26.703Z,26.03
2017-11-16T05:44:55.039Z,23.03
2017-11-16T05:47:24.144Z,23.93
2017-11-16T05:49:53.140Z,24.93
2017-11-16T05:52:22.248Z,26.93
2017-11-16T05:54:50.584Z,27.20
2017-11-16T05:57:18.653Z,25.10
2017-11-16T05:59:46.991Z,21.97
2017-11-16T06:02:15.322Z,24.90
2017-11-16T06:04:44.460Z,21.90
2017-11-16T06:07:12.990Z,22.80
2017-11-16T06:09:41.321Z,20.73
2017-11-16T06:12:10.453Z,26.10
2017-11-16T06:14:38.787Z,24.33
2017-11-16T06:17:06.937Z,22.67
2017-11-16T06:19:35.287Z,21.40
2017-11-16T06:22:03.642Z,24.33
2017-11-16T06:24:32.026Z,20.37
2017-11-16T06:27:00.353Z,23.40
2017-11-16T06:29:28.499Z,22.20
2017-11-16T06:31:58.565Z,24.40
2017-11-16T06:34:26.891Z,21.90
2017-11-16T06:36:55.988Z,22.23
2017-11-16T06:39:25.130Z,21.97
2017-11-16T06:41:53.467Z,21.37
2017-11-16T06:44:22.562Z,22.40
2017-11-16T06:46:51.711Z,22.23
2017-11-16T06:49:20.049Z,21.97
2017-11-16T06:51:48.384Z,20.03
2017-11-16T06:54:16.747Z,21.07
2017-11-16T06:56:45.071Z,21.60
2017-11-16T06:59:13.451Z,20.47
2017-11-16T07:01:41.779Z,21.07
2017-11-16T07:04:10.575Z,20.87
2017-11-16T07:06:38.913Z,19.67
2017-11-16T07:09:07.272Z,20.23
2017-11-16T07:11:35.608Z,20.80
2017-11-16T07:14:03.936Z,18.33
2017-11-16T07:16:32.287Z,18.47
2017-11-16T07:19:01.424Z,22.70
2017-11-16T07:21:29.756Z,21.47
2017-11-16T07:23:58.867Z,21.00
2017-11-16T07:26:27.222Z,20.17
2017-11-16T07:28:56.371Z,19.83
2017-11-16T07:31:24.698Z,20.73
2017-11-16T07:33:53.795Z,20.57
2017-11-16T07:36:22.916Z,20.83
2017-11-16T07:38:51.251Z,19.83
2017-11-16T07:41:19.297Z,18.37
2017-11-16T07:43:47.627Z,21.20
2017-11-16T07:46:15.967Z,20.77
2017-11-16T07:48:44.219Z,21.50
2017-11-16T07:51:12.036Z,20.20
2017-11-16T07:53:40.954Z,24.47
2017-11-16T07:56:09.132Z,19.10
2017-11-16T07:58:37.359Z,22.63
2017-11-16T08:01:05.884Z,19.20
2017-11-16T08:03:34.251Z,21.90
2017-11-16T08:06:02.645Z,17.10
2017-11-16T08:08:30.965Z,16.83
2017-11-16T08:10:59.295Z,17.87
2017-11-16T08:13:27.652Z,16.63
2017-11-16T08:15:55.798Z,16.67
2017-11-16T08:18:24.897Z,18.60
2017-11-16T08:20:54.063Z,18.93
2017-11-16T08:23:22.391Z,15.93
2017-11-16T08:25:50.728Z,17.33
2017-11-16T08:28:19.112Z,16.57
2017-11-16T08:30:47.439Z,21.53
2017-11-16T08:33:15.772Z,20.17
2017-11-16T08:35:44.911Z,19.80
2017-11-16T08:38:13.245Z,17.60
2017-11-16T08:40:42.013Z,16.43
2017-11-16T08:43:11.112Z,16.33
2017-11-16T08:45:38.781Z,17.40
2017-11-16T08:48:07.044Z,18.20
2017-11-16T08:50:34.715Z,19.17
2017-11-16T08:53:02.457Z,20.63
2017-11-16T08:55:30.692Z,19.43
2017-11-16T08:57:58.370Z,17.43
2017-11-16T09:00:26.231Z,16.73
2017-11-16T09:02:54.131Z,18.60
2017-11-16T09:05:22.324Z,18.23
2017-11-16T09:07:50.944Z,18.50
2017-11-16T09:10:18.617Z,18.87
2017-11-16T09:12:46.806Z,17.30
2017-11-16T09:15:14.855Z,20.90
2017-11-16T09:17:42.517Z,18.07
2017-11-16T09:20:10.844Z,19.23
2017-11-16T09:22:38.608Z,18.00
2017-11-16T09:25:06.468Z,16.70
2017-11-16T09:27:34.507Z,20.20
2017-11-16T09:30:03.037Z,21.90
2017-11-16T09:32:31.806Z,18.97
2017-11-16T09:34:59.831Z,18.07
2017-11-16T09:37:28.174Z,19.77
2017-11-16T09:39:56.522Z,19.73
2017-11-16T09:42:24.850Z,18.53
2017-11-16T09:44:53.183Z,21.07
2017-11-16T09:47:21.726Z,18.63
2017-11-16T09:49:49.761Z,18.07
2017-11-16T09:52:19.103Z,19.93
2017-11-16T09:54:47.436Z,18.70
2017-11-16T09:57:16.763Z,19.50
2017-11-16T09:59:44.760Z,18.47
2017-11-16T10:02:14.599Z,18.67
2017-11-16T10:04:43.745Z,23.33
2017-11-16T10:07:12.076Z,17.60
2017-11-16T10:09:41.170Z,22.93
2017-11-16T10:12:11.019Z,19.63
2017-11-16T10:14:39.343Z,20.80
2017-11-16T10:17:08.019Z,19.37
2017-11-16T10:19:36.340Z,18.23
2017-11-16T10:22:05.675Z,19.57
2017-11-16T10:24:34.050Z,20.27
2017-11-16T10:27:02.384Z,21.97
2017-11-16T10:29:31.472Z,15.77
2017-11-16T10:32:01.574Z,19.43
2017-11-16T10:34:29.899Z,20.27
2017-11-16T10:36:58.230Z,19.27
2017-11-16T10:39:25.940Z,19.33
2017-11-16T10:41:55.256Z,20.27
2017-11-16T10:44:23.247Z,16.70
2017-11-16T10:46:51.603Z,19.03
2017-11-16T10:49:19.635Z,18.70
2017-11-16T10:51:47.629Z,18.77
2017-11-16T10:54:15.626Z,19.20
2017-11-16T10:56:43.980Z,22.10
2017-11-16T10:59:11.647Z,20.67
2017-11-16T11:01:41.033Z,18.17
2017-11-16T11:04:09.367Z,21.83
2017-11-16T11:06:39.559Z,20.20
2017-11-16T11:09:07.981Z,23.57
2017-11-16T11:11:38.791Z,22.00
2017-11-16T11:14:07.979Z,20.93
2017-11-16T11:16:36.310Z,22.90
2017-11-16T11:19:04.631Z,23.67
2017-11-16T11:21:33.076Z,21.27
2017-11-16T11:24:01.412Z,22.00
2017-11-16T11:26:30.707Z,26.03
2017-11-16T11:28:59.828Z,21.30
2017-11-16T11:31:28.209Z,22.07
2017-11-16T11:33:56.577Z,20.40
2017-11-16T11:36:24.924Z,21.17
2017-11-16T11:38:53.252Z,20.97
2017-11-16T11:41:21.599Z,18.00
2017-11-16T11:43:50.690Z,21.37
2017-11-16T11:46:19.802Z,22.17
2017-11-16T11:48:48.131Z,21.37
2017-11-16T11:51:16.696Z,20.60
2017-11-16T11:53:45.224Z,23.00
2017-11-16T11:56:16.102Z,22.20
2017-11-16T11:58:44.435Z,20.10
2017-11-16T12:01:13.535Z,21.37
2017-11-16T12:03:42.657Z,21.63
2017-11-16T12:06:10.996Z,22.00
2017-11-16T12:08:40.112Z,22.00
2017-11-16T12:11:08.984Z,19.37
2017-11-16T12:13:38.800Z,20.03
2017-11-16T12:16:08.041Z,21.47
2017-11-16T12:18:36.372Z,22.70
2017-11-16T12:21:05.464Z,20.00
2017-11-16T12:23:34.579Z,24.03
2017-11-16T12:26:02.937Z,19.30
2017-11-16T12:28:32.072Z,21.03
2017-11-16T12:30:59.551Z,22.37
2017-11-16T12:33:27.208Z,20.03
2017-11-16T12:35:55.222Z,20.73
2017-11-16T12:38:24.030Z,22.87
2017-11-16T12:40:52.040Z,20.37
2017-11-16T12:43:20.047Z,21.13
2017-11-16T12:45:48.831Z,21.97
2017-11-16T12:48:17.927Z,21.47
2017-11-16T12:50:47.070Z,27.10
2017-11-16T12:53:15.067Z,21.03
2017-11-16T12:55:42.736Z,19.53
2017-11-16T12:58:11.293Z,21.47
2017-11-16T13:00:40.349Z,21.80
2017-11-16T13:03:09.383Z,22.23
2017-11-16T13:05:38.014Z,21.80
2017-11-16T13:08:07.099Z,23.27
2017-11-16T13:10:36.216Z,19.70
2017-11-16T13:13:04.546Z,19.73
2017-11-16T13:15:32.926Z,19.50
2017-11-16T13:18:01.069Z,18.00
2017-11-16T13:20:29.392Z,23.57
2017-11-16T13:22:57.738Z,22.97
2017-11-16T13:25:26.071Z,19.23
2017-11-16T13:27:55.218Z,22.07
2017-11-16T13:30:23.620Z,19.37
2017-11-16T13:32:52.152Z,20.33
2017-11-16T13:35:20.519Z,20.87
2017-11-16T13:37:48.848Z,19.60
2017-11-16T13:40:17.181Z,23.80
2017-11-16T13:42:45.527Z,22.80
2017-11-16T13:45:14.626Z,27.80
2017-11-16T13:47:43.942Z,21.23
2017-11-16T13:50:12.271Z,21.23
2017-11-16T13:55:36.899Z,24.90
2017-11-16T13:58:06.011Z,23.33
2017-11-16T14:00:34.145Z,22.27
2017-11-16T14:03:02.716Z,26.93
2017-11-16T14:05:31.048Z,24.80
2017-11-16T14:07:59.600Z,23.70
2017-11-16T14:10:28.684Z,24.30
2017-11-16T14:12:57.027Z,21.27
2017-11-16T14:15:25.404Z,22.53
2017-11-16T14:17:53.741Z,20.77
2017-11-16T14:20:23.029Z,19.83
2017-11-16T14:22:52.144Z,20.57
2017-11-16T14:25:21.416Z,23.10
2017-11-16T14:27:50.580Z,20.07
2017-11-16T14:30:18.909Z,24.97
2017-11-16T14:32:48.192Z,20.97
2017-11-16T14:35:17.340Z,22.87
2017-11-16T14:37:45.672Z,22.13
2017-11-16T14:40:14.759Z,22.50
2017-11-16T14:42:43.902Z,21.80
2017-11-16T14:45:12.224Z,20.97
2017-11-16T14:47:40.445Z,22.80
2017-11-16T14:50:08.833Z,20.60
2017-11-16T14:52:37.366Z,21.00
2017-11-16T14:55:06.464Z,20.07
2017-11-16T14:57:35.028Z,22.30
2017-11-16T15:00:03.568Z,19.50
2017-11-16T15:02:31.945Z,22.80
2017-11-16T15:05:00.271Z,20.87
2017-11-16T15:07:28.633Z,21.50
2017-11-16T15:09:56.812Z,19.03
2017-11-16T15:12:25.137Z,20.03
2017-11-16T15:14:53.663Z,18.23
2017-11-16T15:17:22.020Z,17.73
2017-11-16T15:19:50.548Z,18.40
2017-11-16T15:22:19.644Z,15.77
2017-11-16T15:24:49.358Z,16.07
2017-11-16T15:27:18.514Z,17.97
2017-11-16T15:29:46.831Z,16.73
2017-11-16T15:32:15.730Z,16.80
2017-11-16T15:34:44.112Z,17.53
2017-11-16T15:37:12.428Z,15.20
2017-11-16T15:39:40.746Z,15.30
2017-11-16T15:42:09.863Z,15.13
2017-11-16T15:44:38.227Z,18.63
2017-11-16T15:47:07.331Z,18.03
2017-11-16T15:49:36.614Z,15.03
2017-11-16T15:52:05.731Z,17.10
2017-11-16T15:54:35.016Z,17.30
2017-11-16T15:57:04.330Z,17.23
2017-11-16T15:59:32.675Z,17.67
2017-11-16T16:02:01.023Z,18.20
2017-11-16T16:04:29.010Z,19.13
2017-11-16T16:06:57.564Z,17.67
2017-11-16T16:09:25.887Z,16.03
2017-11-16T16:11:54.843Z,16.73
2017-11-16T16:14:23.171Z,17.63
2017-11-16T16:16:52.256Z,17.57
2017-11-16T16:19:21.371Z,15.73
2017-11-16T16:21:50.500Z,15.33
2017-11-16T16:24:19.340Z,15.13
2017-11-16T16:26:48.983Z,16.27
2017-11-16T16:29:17.304Z,17.90
2017-11-16T16:31:45.688Z,16.47
2017-11-16T16:34:14.016Z,16.80
2017-11-16T16:36:42.341Z,16.30
2017-11-16T16:39:10.687Z,16.03
2017-11-16T16:41:39.011Z,15.17
2017-11-16T16:44:08.105Z,16.13
2017-11-16T16:46:37.211Z,14.80
2017-11-16T16:49:05.555Z,17.17
2017-11-16T16:51:33.919Z,14.87
2017-11-16T16:54:02.279Z,17.70
2017-11-16T16:56:30.607Z,15.63
2017-11-16T16:58:59.698Z,16.67
2017-11-16T17:01:28.807Z,16.03
2017-11-16T17:03:57.133Z,15.73
2017-11-16T17:06:25.502Z,17.63
2017-11-16T17:08:53.826Z,14.13
2017-11-16T17:11:22.914Z,16.20
2017-11-16T17:13:52.032Z,14.20
2017-11-16T17:16:20.354Z,16.57
2017-11-16T17:18:48.715Z,15.90
2017-11-16T17:21:17.034Z,18.77
2017-11-16T17:23:46.146Z,16.60
2017-11-16T17:26:15.294Z,17.70
2017-11-16T17:28:43.619Z,20.03
2017-11-16T17:31:12.713Z,17.67
2017-11-16T17:33:41.469Z,19.30
2017-11-16T17:36:10.818Z,18.43
2017-11-16T17:38:39.736Z,18.43
2017-11-16T17:41:08.434Z,16.37
2017-11-16T17:43:37.524Z,16.63
2017-11-16T17:46:05.843Z,18.47
2017-11-16T17:48:35.171Z,21.90
2017-11-16T17:51:03.492Z,18.30
2017-11-16T17:53:31.859Z,25.07
2017-11-16T17:56:00.371Z,21.27
2017-11-16T17:58:29.460Z,31.03
2017-11-16T18:00:58.589Z,25.43
2017-11-16T18:03:26.915Z,29.53
2017-11-16T18:05:55.252Z,26.27
2017-11-16T18:08:23.606Z,26.97
2017-11-16T18:10:52.695Z,31.37
2017-11-16T18:13:21.796Z,31.00
2017-11-16T18:15:50.906Z,90.27
2017-11-16T18:18:19.261Z,250.37
2017-11-16T18:20:48.598Z,337.50
2017-11-16T18:23:16.935Z,205.23
2017-11-16T18:25:46.029Z,147.73
2017-11-16T18:28:15.377Z,139.77
2017-11-16T18:30:43.898Z,77.60
2017-11-16T18:33:12.224Z,90.57
2017-11-16T18:35:41.447Z,90.83
2017-11-16T18:38:11.736Z,75.57
2017-11-16T18:40:41.044Z,65.03
2017-11-16T18:43:09.367Z,64.10
2017-11-16T18:45:37.768Z,66.30
2017-11-16T18:48:05.905Z,60.83
2017-11-16T18:50:34.261Z,55.50
2017-11-16T18:53:03.450Z,61.13
2017-11-16T18:55:32.627Z,49.93
2017-11-16T18:58:01.041Z,42.07
2017-11-16T19:00:29.460Z,41.90
2017-11-16T19:02:57.912Z,42.03
2017-11-16T19:05:26.361Z,43.27
2017-11-16T19:07:55.586Z,36.33
2017-11-16T19:10:24.022Z,33.87
2017-11-16T19:12:52.509Z,34.33
2017-11-16T19:15:21.806Z,32.40
2017-11-16T19:17:51.039Z,31.57
2017-11-16T19:20:19.443Z,29.53
2017-11-16T19:22:47.872Z,37.03
2017-11-16T19:25:17.051Z,35.83
2017-11-16T19:27:45.585Z,33.37
2017-11-16T19:30:14.188Z,32.10
2017-11-16T19:32:42.753Z,30.10
2017-11-16T19:35:12.129Z,32.33
2017-11-16T19:37:41.506Z,33.07
2017-11-16T19:40:11.630Z,34.30
2017-11-16T19:42:40.847Z,31.33
2017-11-16T19:45:10.402Z,29.10
2017-11-16T19:47:40.357Z,29.57
2017-11-16T19:50:09.587Z,31.73
2017-11-16T19:52:39.556Z,32.30
2017-11-16T19:55:08.222Z,33.77
2017-11-16T19:57:37.605Z,28.80
2017-11-16T20:00:06.286Z,29.90
2017-11-16T20:02:34.923Z,33.37
2017-11-16T20:05:03.569Z,33.50
2017-11-16T20:07:33.019Z,33.83
2017-11-16T20:10:01.657Z,37.90
2017-11-16T20:12:31.057Z,33.70
2017-11-16T20:15:00.487Z,34.30
2017-11-16T20:17:29.156Z,27.17
2017-11-16T20:19:57.826Z,34.80
2017-11-16T20:22:27.235Z,35.97
2017-11-16T20:24:56.638Z,32.33
2017-11-16T20:27:26.010Z,31.47
2017-11-16T20:29:54.680Z,32.93
2017-11-16T20:32:23.281Z,30.90
2017-11-16T20:34:51.843Z,30.30
2017-11-16T20:40:24.585Z,29.40
2017-11-16T20:43:09.631Z,36.43
2017-11-16T20:45:43.511Z,28.20
2017-11-16T20:48:14.182Z,29.03
2017-11-16T20:50:44.279Z,32.27
2017-11-16T20:53:22.421Z,31.67
2017-11-16T20:55:50.590Z,31.83
2017-11-16T20:58:18.809Z,30.93
2017-11-16T21:00:47.802Z,32.20
2017-11-16T21:03:16.925Z,32.37
2017-11-16T21:05:45.341Z,29.63
2017-11-16T21:08:14.393Z,35.23
2017-11-16T21:10:42.745Z,37.17
2017-11-16T21:13:11.872Z,33.40
2017-11-16T21:15:40.208Z,32.80
2017-11-16T21:18:10.348Z,34.50
2017-11-16T21:20:38.828Z,32.43
2017-11-16T21:23:07.916Z,35.40
2017-11-16T21:25:37.028Z,34.77
2017-11-16T21:28:05.351Z,32.10
2017-11-16T21:30:33.733Z,34.97
2017-11-16T21:33:02.065Z,31.53
2017-11-16T21:35:30.460Z,35.33
2017-11-16T21:37:58.814Z,36.37
2017-11-16T21:40:27.146Z,34.07
2017-11-16T21:42:56.072Z,32.67
2017-11-16T21:45:24.229Z,34.47
2017-11-16T21:47:53.131Z,29.73
2017-11-16T21:50:22.222Z,32.57
2017-11-16T21:52:51.343Z,29.27
2017-11-16T21:55:19.724Z,31.43
2017-11-16T21:57:48.048Z,31.40
2017-11-16T22:00:16.387Z,29.03
2017-11-16T22:02:44.944Z,34.70
2017-11-16T22:05:13.311Z,28.53
2017-11-16T22:07:41.682Z,33.10
2017-11-16T22:10:11.064Z,33.87
2017-11-16T22:12:40.217Z,32.23
2017-11-16T22:15:08.792Z,33.67
2017-11-16T22:17:37.141Z,34.03
2017-11-16T22:20:06.404Z,31.37
2017-11-16T22:22:34.760Z,32.70
2017-11-16T22:25:03.091Z,32.57
2017-11-16T22:27:32.179Z,33.23
2017-11-16T22:30:00.958Z,29.83
2017-11-16T22:32:30.054Z,32.93
2017-11-16T22:34:59.157Z,32.77
2017-11-16T22:37:27.736Z,32.17
2017-11-16T22:39:56.828Z,32.97
2017-11-16T22:42:25.924Z,28.73
2017-11-16T22:44:55.071Z,32.93
2017-11-16T22:47:23.396Z,31.73
2017-11-16T22:49:52.492Z,29.87
2017-11-16T22:52:21.604Z,33.40
2017-11-16T22:54:49.960Z,32.70
2017-11-16T22:57:19.059Z,36.03
2017-11-16T22:59:48.191Z,37.67
2017-11-16T23:02:16.539Z,33.10
2017-11-16T23:04:45.632Z,38.77
2017-11-16T23:07:14.929Z,29.80
2017-11-16T23:09:44.060Z,34.00
2017-11-16T23:12:12.407Z,33.53
2017-11-16T23:14:41.650Z,37.30
2017-11-16T23:17:10.025Z,34.77
2017-11-16T23:19:38.953Z,38.10
2017-11-16T23:22:07.268Z,34.70
2017-11-16T23:24:35.294Z,34.47
2017-11-16T23:27:04.390Z,34.20
2017-11-16T23:29:32.795Z,36.97
2017-11-16T23:32:01.178Z,37.23
2017-11-16T23:34:29.504Z,33.33
2017-11-16T23:36:57.835Z,36.80
2017-11-16T23:39:26.236Z,35.43
2017-11-16T23:41:54.566Z,38.77
2017-11-16T23:44:23.680Z,35.07
2017-11-16T23:46:52.035Z,35.43
2017-11-16T23:49:21.164Z,35.70
2017-11-16T23:51:49.511Z,35.40
2017-11-16T23:54:18.623Z,34.73
2017-11-16T23:56:46.958Z,29.23
2017-11-16T23:59:15.299Z,31.70
